Time;durP1;ratioP1;P1;durP2;ratioP2;P2;SDS_P1;SDS_P2;PMS_P1;PMS_P2;Temp;Humidity;BMP_temperature;BMP_pressure;BME280_temperature;BME280_humidity;BME280_pressure;Samples;Min_cycle;Max_cycle;Signal;HPM_P1;HPM_P2
2021/12/26 00:00:40;;;;;;;40.45;16.42;;;;;;;;;;5023146;28;20026;-70
2021/12/26 00:03:05;;;;;;;40.53;17.02;;;;;;;;;;5029079;28;20031;-75
2021/12/26 00:05:31;;;;;;;33.72;14.95;;;;;;;;;;5021423;28;20028;-75
2021/12/26 00:07:56;;;;;;;31.15;13.93;;;;;;;;;;5021038;28;20037;-75
2021/12/26 00:10:22;;;;;;;31.58;14.02;;;;;;;;;;5022600;28;20127;-75
2021/12/26 00:12:48;;;;;;;33.55;14.00;;;;;;;;;;5017291;28;20061;-75
2021/12/26 00:15:13;;;;;;;35.58;15.25;;;;;;;;;;5022758;28;20057;-75
2021/12/26 00:17:40;;;;;;;35.70;15.02;;;;;;;;;;5026232;28;20508;-75
2021/12/26 00:20:06;;;;;;;34.13;15.75;;;;;;;;;;5023619;28;20109;-75
2021/12/26 00:22:32;;;;;;;36.45;15.05;;;;;;;;;;5029306;28;20096;-75
2021/12/26 00:24:57;;;;;;;37.63;15.07;;;;;;;;;;5035892;28;20444;-74
2021/12/26 00:27:22;;;;;;;33.67;14.23;;;;;;;;;;5031885;28;20087;-77
2021/12/26 00:29:48;;;;;;;37.58;15.73;;;;;;;;;;5028085;28;20484;-75
2021/12/26 00:32:13;;;;;;;35.35;15.70;;;;;;;;;;5026850;28;20049;-75
2021/12/26 00:34:38;;;;;;;38.40;16.45;;;;;;;;;;5022165;28;20134;-75
2021/12/26 00:37:05;;;;;;;35.75;15.25;;;;;;;;;;5025208;28;20079;-75
2021/12/26 00:39:30;;;;;;;36.55;15.07;;;;;;;;;;5028760;28;20100;-75
2021/12/26 00:41:55;;;;;;;36.42;15.52;;;;;;;;;;5023250;28;20120;-75
2021/12/26 00:44:20;;;;;;;36.08;15.38;;;;;;;;;;5020534;28;20056;-75
2021/12/26 00:46:46;;;;;;;40.45;16.52;;;;;;;;;;5029696;28;20025;-74
2021/12/26 00:49:11;;;;;;;36.60;16.00;;;;;;;;;;5028707;28;20109;-76
2021/12/26 00:51:36;;;;;;;38.50;16.48;;;;;;;;;;5028416;28;20519;-75
2021/12/26 00:54:02;;;;;;;36.53;15.82;;;;;;;;;;5024767;28;20486;-76
2021/12/26 00:56:27;;;;;;;36.00;16.63;;;;;;;;;;5028498;28;20025;-75
2021/12/26 00:58:52;;;;;;;40.88;17.60;;;;;;;;;;5024695;28;20026;-74
2021/12/26 01:01:17;;;;;;;38.28;15.88;;;;;;;;;;5026871;28;20022;-75
2021/12/26 01:03:43;;;;;;;42.13;17.70;;;;;;;;;;5031516;28;20025;-76
2021/12/26 01:06:08;;;;;;;44.80;18.25;;;;;;;;;;5022888;28;20041;-75
2021/12/26 01:08:38;;;;;;;41.58;18.45;;;;;;;;;;5026878;28;20121;-75
2021/12/26 01:11:16;;;;;;;41.80;18.90;;;;;;;;;;5024270;28;20499;-75
2021/12/26 01:13:43;;;;;;;43.95;18.63;;;;;;;;;;5017169;28;20148;-75
2021/12/26 01:16:11;;;;;;;36.30;17.30;;;;;;;;;;5017894;28;20329;-74
2021/12/26 01:18:38;;;;;;;40.95;17.85;;;;;;;;;;5028812;28;20025;-75
2021/12/26 01:21:16;;;;;;;39.83;18.45;;;;;;;;;;5024198;28;20104;-75
2021/12/26 01:23:42;;;;;;;37.40;17.88;;;;;;;;;;5028701;28;20026;-75
2021/12/26 01:26:07;;;;;;;45.08;19.48;;;;;;;;;;5025403;28;20390;-75
2021/12/26 01:28:32;;;;;;;46.33;18.73;;;;;;;;;;5028534;28;20100;-75
2021/12/26 01:30:58;;;;;;;51.13;20.95;;;;;;;;;;5025225;28;20029;-75
2021/12/26 01:33:24;;;;;;;50.80;21.05;;;;;;;;;;5028417;28;20492;-75
2021/12/26 01:35:49;;;;;;;51.33;20.25;;;;;;;;;;5025025;28;20101;-74
2021/12/26 01:38:15;;;;;;;46.13;20.83;;;;;;;;;;5025535;28;20477;-75
2021/12/26 01:40:43;;;;;;;49.95;21.25;;;;;;;;;;5026924;28;20084;-75
2021/12/26 01:43:09;;;;;;;44.08;19.60;;;;;;;;;;5028792;28;20116;-75
2021/12/26 01:45:34;;;;;;;51.60;22.02;;;;;;;;;;5028069;28;20128;-77
2021/12/26 01:48:00;;;;;;;57.08;21.52;;;;;;;;;;5026361;28;20358;-77
2021/12/26 01:50:26;;;;;;;66.55;24.08;;;;;;;;;;5025739;28;20029;-75
2021/12/26 01:52:51;;;;;;;64.10;23.90;;;;;;;;;;5028290;28;20026;-75
2021/12/26 01:55:38;;;;;;;58.58;24.70;;;;;;;;;;5022084;28;20531;-75
2021/12/26 01:58:04;;;;;;;58.63;22.73;;;;;;;;;;5025852;28;20027;-76
2021/12/26 02:00:29;;;;;;;61.03;23.25;;;;;;;;;;5023045;28;20520;-74
2021/12/26 02:02:54;;;;;;;60.95;24.35;;;;;;;;;;5025348;28;20052;-74
2021/12/26 02:05:19;;;;;;;68.75;26.17;;;;;;;;;;5027092;28;20040;-75
2021/12/26 02:07:45;;;;;;;69.60;25.85;;;;;;;;;;5021218;28;20026;-75
2021/12/26 02:10:10;;;;;;;70.72;26.40;;;;;;;;;;5020970;28;20037;-75
2021/12/26 02:12:35;;;;;;;63.03;24.02;;;;;;;;;;5023721;28;20034;-75
2021/12/26 02:15:01;;;;;;;59.55;24.83;;;;;;;;;;5028322;28;20473;-76
2021/12/26 02:17:28;;;;;;;56.30;23.75;;;;;;;;;;5019555;28;20429;-77
2021/12/26 02:20:11;;;;;;;49.58;21.42;;;;;;;;;;5021675;28;20487;-74
2021/12/26 02:22:39;;;;;;;52.38;22.98;;;;;;;;;;5026914;28;20420;-76
2021/12/26 02:25:24;;;;;;;59.50;23.92;;;;;;;;;;5028809;28;20503;-75
2021/12/26 02:27:49;;;;;;;54.30;23.15;;;;;;;;;;5027637;28;20053;-75
2021/12/26 02:30:16;;;;;;;54.25;21.77;;;;;;;;;;5023491;28;20034;-75
2021/12/26 02:32:41;;;;;;;55.22;22.02;;;;;;;;;;5027237;28;20104;-74
2021/12/26 02:35:07;;;;;;;55.25;23.17;;;;;;;;;;5025742;28;20549;-75
2021/12/26 02:37:32;;;;;;;61.13;23.77;;;;;;;;;;5039668;28;20318;-73
2021/12/26 02:39:57;;;;;;;59.40;22.17;;;;;;;;;;5029515;28;20033;-74
2021/12/26 02:42:23;;;;;;;60.28;23.38;;;;;;;;;;5034506;28;20620;-74
2021/12/26 02:44:48;;;;;;;62.30;23.55;;;;;;;;;;5033214;28;20029;-73
2021/12/26 02:47:28;;;;;;;55.10;22.10;;;;;;;;;;5022102;28;20105;-74
2021/12/26 02:49:57;;;;;;;55.72;22.10;;;;;;;;;;5030804;28;20029;-74
2021/12/26 02:52:22;;;;;;;68.95;24.13;;;;;;;;;;5024671;28;20133;-75
2021/12/26 02:54:47;;;;;;;65.38;25.27;;;;;;;;;;5032103;28;20116;-76
2021/12/26 02:57:12;;;;;;;69.03;25.10;;;;;;;;;;5027140;28;20039;-74
2021/12/26 02:59:37;;;;;;;56.28;24.35;;;;;;;;;;5024426;28;20575;-75
2021/12/26 03:02:03;;;;;;;68.65;24.98;;;;;;;;;;5028390;28;20032;-75
2021/12/26 03:04:28;;;;;;;56.63;23.52;;;;;;;;;;5030795;28;20373;-75
2021/12/26 03:07:02;;;;;;;64.38;24.50;;;;;;;;;;5031423;28;20059;-74
2021/12/26 03:09:30;;;;;;;57.70;24.13;;;;;;;;;;5034656;28;20520;-74
2021/12/26 03:11:55;;;;;;;66.20;24.77;;;;;;;;;;5032090;28;20022;-75
2021/12/26 03:14:20;;;;;;;65.72;24.98;;;;;;;;;;5028899;28;20033;-74
2021/12/26 03:16:50;;;;;;;57.75;22.90;;;;;;;;;;5024013;28;20377;-73
2021/12/26 03:19:16;;;;;;;46.28;20.55;;;;;;;;;;5037003;28;20037;-74
2021/12/26 03:21:41;;;;;;;51.03;20.85;;;;;;;;;;5040486;28;20036;-74
2021/12/26 03:24:06;;;;;;;56.53;23.52;;;;;;;;;;5029572;28;20061;-75
2021/12/26 03:26:31;;;;;;;47.83;21.30;;;;;;;;;;5039279;28;20092;-76
2021/12/26 03:28:56;;;;;;;56.80;22.65;;;;;;;;;;5027357;28;20029;-72
2021/12/26 03:31:22;;;;;;;58.03;24.48;;;;;;;;;;5024063;28;20374;-74
2021/12/26 03:33:47;;;;;;;51.10;23.17;;;;;;;;;;5029505;28;20029;-74
2021/12/26 03:36:12;;;;;;;60.60;22.83;;;;;;;;;;5023057;28;20046;-74
2021/12/26 03:38:37;;;;;;;54.88;22.40;;;;;;;;;;5029331;28;20025;-74
2021/12/26 03:41:03;;;;;;;56.97;23.00;;;;;;;;;;5024346;28;20470;-75
2021/12/26 03:43:28;;;;;;;54.00;22.23;;;;;;;;;;5029564;28;20040;-75
2021/12/26 03:45:54;;;;;;;47.65;21.13;;;;;;;;;;5023109;28;20493;-75
2021/12/26 03:48:21;;;;;;;52.50;21.83;;;;;;;;;;5030435;28;20037;-74
2021/12/26 03:50:46;;;;;;;54.60;22.65;;;;;;;;;;5026459;28;20067;-76
2021/12/26 03:53:12;;;;;;;52.58;22.00;;;;;;;;;;5026583;28;20072;-75
2021/12/26 03:55:38;;;;;;;53.47;21.27;;;;;;;;;;5029337;28;20113;-75
2021/12/26 03:58:04;;;;;;;52.47;21.83;;;;;;;;;;5030136;28;20049;-75
2021/12/26 04:00:30;;;;;;;50.35;21.17;;;;;;;;;;5027917;28;20021;-76
2021/12/26 04:02:55;;;;;;;57.95;22.60;;;;;;;;;;5024717;28;20112;-74
2021/12/26 04:05:21;;;;;;;54.75;22.80;;;;;;;;;;5029096;28;20117;-72
2021/12/26 04:07:47;;;;;;;54.63;22.27;;;;;;;;;;5027721;28;20034;-75
2021/12/26 04:10:12;;;;;;;58.15;21.80;;;;;;;;;;5026240;28;20470;-75
2021/12/26 04:12:43;;;;;;;47.95;20.10;;;;;;;;;;5029366;28;20501;-74
2021/12/26 04:15:09;;;;;;;53.28;21.20;;;;;;;;;;5021830;28;20053;-75
2021/12/26 04:17:35;;;;;;;52.38;20.58;;;;;;;;;;5028329;28;20036;-74
2021/12/26 04:20:00;;;;;;;53.95;21.27;;;;;;;;;;5027869;28;20033;-73
2021/12/26 04:22:26;;;;;;;47.55;19.73;;;;;;;;;;5029730;28;20052;-75
2021/12/26 04:24:51;;;;;;;52.03;20.67;;;;;;;;;;5024008;28;20107;-75
2021/12/26 04:27:16;;;;;;;43.30;18.65;;;;;;;;;;5029513;28;20029;-73
2021/12/26 04:29:41;;;;;;;50.50;20.55;;;;;;;;;;5028621;28;20723;-74
2021/12/26 04:32:07;;;;;;;46.85;18.98;;;;;;;;;;5019013;28;20056;-74
2021/12/26 04:34:32;;;;;;;54.55;21.13;;;;;;;;;;5024652;28;20030;-75
2021/12/26 04:36:57;;;;;;;48.10;19.65;;;;;;;;;;5023427;28;20018;-75
2021/12/26 04:39:22;;;;;;;51.72;20.67;;;;;;;;;;5029446;28;20064;-74
2021/12/26 04:41:48;;;;;;;46.88;20.67;;;;;;;;;;5022234;28;20358;-73
2021/12/26 04:44:13;;;;;;;50.60;18.67;;;;;;;;;;5029597;28;20093;-74
2021/12/26 04:46:38;;;;;;;55.45;21.63;;;;;;;;;;5018578;28;20138;-75
2021/12/26 04:49:03;;;;;;;57.45;20.70;;;;;;;;;;5024652;28;20025;-75
2021/12/26 04:51:29;;;;;;;57.10;21.73;;;;;;;;;;5029165;28;20021;-75
2021/12/26 04:53:54;;;;;;;53.70;22.35;;;;;;;;;;5028353;28;20489;-75
2021/12/26 04:56:19;;;;;;;52.75;20.50;;;;;;;;;;5024386;28;20381;-75
2021/12/26 04:58:44;;;;;;;49.50;20.73;;;;;;;;;;5033973;28;20802;-75
2021/12/26 05:01:09;;;;;;;52.60;20.42;;;;;;;;;;5023005;28;20033;-75
2021/12/26 05:03:35;;;;;;;58.42;21.85;;;;;;;;;;5024612;28;20049;-75
2021/12/26 05:06:00;;;;;;;50.95;20.70;;;;;;;;;;5027359;28;20045;-75
2021/12/26 05:08:25;;;;;;;50.92;19.20;;;;;;;;;;5028696;28;20412;-76
2021/12/26 05:10:50;;;;;;;52.08;20.88;;;;;;;;;;5024611;28;20134;-73
2021/12/26 05:13:16;;;;;;;53.58;20.35;;;;;;;;;;5021722;28;20071;-74
2021/12/26 05:15:41;;;;;;;46.15;18.25;;;;;;;;;;5022577;28;20036;-74
2021/12/26 05:18:06;;;;;;;52.15;19.02;;;;;;;;;;5027163;28;20495;-75
2021/12/26 05:20:32;;;;;;;45.53;19.15;;;;;;;;;;5028510;28;20017;-75
2021/12/26 05:22:57;;;;;;;44.10;18.48;;;;;;;;;;5020957;28;20612;-74
2021/12/26 05:25:23;;;;;;;53.78;20.02;;;;;;;;;;5022510;28;20860;-74
2021/12/26 05:27:49;;;;;;;48.13;19.88;;;;;;;;;;5026923;28;20048;-75
2021/12/26 05:30:15;;;;;;;52.42;20.20;;;;;;;;;;5027214;28;20022;-75
2021/12/26 05:32:41;;;;;;;40.83;18.75;;;;;;;;;;5024935;28;20038;-75
2021/12/26 05:35:06;;;;;;;46.88;18.80;;;;;;;;;;5028918;28;20037;-74
2021/12/26 05:37:31;;;;;;;38.10;17.08;;;;;;;;;;5035676;28;20120;-74
2021/12/26 05:39:57;;;;;;;39.78;17.20;;;;;;;;;;5027657;28;20048;-75
2021/12/26 05:42:23;;;;;;;33.83;15.40;;;;;;;;;;5027382;28;20025;-75
2021/12/26 05:44:48;;;;;;;35.75;16.40;;;;;;;;;;5027741;28;20030;-75
2021/12/26 05:47:13;;;;;;;34.22;15.50;;;;;;;;;;5026849;28;20126;-74
2021/12/26 05:49:39;;;;;;;35.35;15.32;;;;;;;;;;5025157;28;20466;-75
2021/12/26 05:52:05;;;;;;;37.42;16.15;;;;;;;;;;5024797;28;20105;-75
2021/12/26 05:54:30;;;;;;;38.85;16.95;;;;;;;;;;5026118;28;20072;-74
2021/12/26 05:56:56;;;;;;;35.70;15.60;;;;;;;;;;5022851;28;20103;-75
2021/12/26 05:59:21;;;;;;;33.60;15.68;;;;;;;;;;5027847;28;20693;-74
2021/12/26 06:01:46;;;;;;;32.80;15.30;;;;;;;;;;5021845;28;20104;-74
2021/12/26 06:04:11;;;;;;;31.65;15.82;;;;;;;;;;5031218;28;20026;-75
2021/12/26 06:06:36;;;;;;;35.22;15.65;;;;;;;;;;5029653;28;20169;-76
2021/12/26 06:09:03;;;;;;;34.33;15.93;;;;;;;;;;5031972;28;20040;-74
2021/12/26 06:11:28;;;;;;;34.40;15.40;;;;;;;;;;5024797;28;20064;-75
2021/12/26 06:13:53;;;;;;;34.97;15.52;;;;;;;;;;5027754;28;20073;-76
2021/12/26 06:16:19;;;;;;;36.30;16.30;;;;;;;;;;5027534;28;20033;-74
2021/12/26 06:18:44;;;;;;;34.40;15.80;;;;;;;;;;5031376;28;20026;-75
2021/12/26 06:21:09;;;;;;;35.13;15.90;;;;;;;;;;5025009;28;20025;-75
2021/12/26 06:23:34;;;;;;;34.65;15.35;;;;;;;;;;5032226;28;20040;-75
2021/12/26 06:25:59;;;;;;;34.60;16.75;;;;;;;;;;5030877;28;20033;-75
2021/12/26 06:28:25;;;;;;;35.42;17.20;;;;;;;;;;5032047;28;20068;-74
2021/12/26 06:30:50;;;;;;;36.53;16.77;;;;;;;;;;5025387;28;20029;-74
2021/12/26 06:33:15;;;;;;;31.23;15.20;;;;;;;;;;5029812;28;20112;-74
2021/12/26 06:35:40;;;;;;;35.45;16.65;;;;;;;;;;5026390;28;20148;-75
2021/12/26 06:38:05;;;;;;;30.55;14.35;;;;;;;;;;5031002;28;20066;-74
2021/12/26 06:40:30;;;;;;;32.42;15.45;;;;;;;;;;5030123;28;20025;-75
2021/12/26 06:42:56;;;;;;;33.28;15.88;;;;;;;;;;5026647;28;20022;-75
2021/12/26 06:45:21;;;;;;;29.73;14.88;;;;;;;;;;5030429;28;20095;-76
2021/12/26 06:47:50;;;;;;;27.58;13.15;;;;;;;;;;5031353;28;20033;-75
2021/12/26 06:50:16;;;;;;;30.73;14.80;;;;;;;;;;5028162;28;20484;-75
2021/12/26 06:52:41;;;;;;;30.00;13.70;;;;;;;;;;5028218;28;20040;-74
2021/12/26 06:55:07;;;;;;;28.92;14.07;;;;;;;;;;5030347;28;20034;-74
2021/12/26 06:57:32;;;;;;;35.22;15.27;;;;;;;;;;5028124;28;20029;-75
2021/12/26 06:59:57;;;;;;;32.40;15.32;;;;;;;;;;5031179;28;20026;-74
2021/12/26 07:02:22;;;;;;;33.67;15.57;;;;;;;;;;5020184;28;20022;-76
2021/12/26 07:04:47;;;;;;;35.05;15.57;;;;;;;;;;5024087;28;20473;-77
2021/12/26 07:07:13;;;;;;;33.10;15.40;;;;;;;;;;5030493;28;20038;-74
2021/12/26 07:09:39;;;;;;;32.92;14.50;;;;;;;;;;5024406;28;20038;-74
2021/12/26 07:12:05;;;;;;;36.08;17.10;;;;;;;;;;5030223;28;20030;-74
2021/12/26 07:14:30;;;;;;;32.88;15.63;;;;;;;;;;5027907;28;20365;-73
2021/12/26 07:16:55;;;;;;;29.20;14.63;;;;;;;;;;5027786;28;20100;-74
2021/12/26 07:19:20;;;;;;;31.63;15.15;;;;;;;;;;5027602;28;20091;-76
2021/12/26 07:21:46;;;;;;;31.58;14.73;;;;;;;;;;5017233;28;20028;-75
2021/12/26 07:24:11;;;;;;;30.80;14.45;;;;;;;;;;5017901;28;20061;-74
2021/12/26 07:26:36;;;;;;;30.90;15.20;;;;;;;;;;5026356;28;20098;-74
2021/12/26 07:29:02;;;;;;;29.30;14.18;;;;;;;;;;5012788;28;20465;-74
2021/12/26 07:31:28;;;;;;;27.88;14.25;;;;;;;;;;5023570;28;20491;-75
2021/12/26 07:33:53;;;;;;;30.98;15.07;;;;;;;;;;5024587;28;20040;-76
2021/12/26 07:36:19;;;;;;;31.88;15.20;;;;;;;;;;5022314;28;20252;-75
2021/12/26 07:38:44;;;;;;;32.15;15.20;;;;;;;;;;5021458;28;20037;-76
2021/12/26 07:41:09;;;;;;;32.42;15.68;;;;;;;;;;5023101;28;20515;-76
2021/12/26 07:43:34;;;;;;;31.42;15.15;;;;;;;;;;5023073;28;20032;-75
2021/12/26 07:45:59;;;;;;;30.08;14.80;;;;;;;;;;5023233;28;20025;-75
2021/12/26 07:48:25;;;;;;;28.23;14.52;;;;;;;;;;5022790;28;20401;-74
2021/12/26 07:50:50;;;;;;;32.90;14.93;;;;;;;;;;5022357;28;20481;-75
2021/12/26 07:53:15;;;;;;;32.28;15.38;;;;;;;;;;5027502;28;20101;-75
2021/12/26 07:55:40;;;;;;;30.52;14.73;;;;;;;;;;5030162;28;20049;-75
2021/12/26 07:58:06;;;;;;;29.70;14.23;;;;;;;;;;5027414;28;20034;-74
2021/12/26 08:00:31;;;;;;;30.88;14.82;;;;;;;;;;5026307;28;20014;-74
2021/12/26 08:02:57;;;;;;;29.92;14.48;;;;;;;;;;5021325;28;20381;-75
2021/12/26 08:05:22;;;;;;;30.73;13.80;;;;;;;;;;5024837;28;20087;-74
2021/12/26 08:07:47;;;;;;;31.58;14.60;;;;;;;;;;5020038;28;20353;-75
2021/12/26 08:10:13;;;;;;;32.60;14.88;;;;;;;;;;5032017;28;20033;-75
2021/12/26 08:12:38;;;;;;;31.77;15.57;;;;;;;;;;5019639;28;20105;-74
2021/12/26 08:15:04;;;;;;;27.40;14.15;;;;;;;;;;5024446;28;20030;-64
2021/12/26 08:17:29;;;;;;;27.45;13.85;;;;;;;;;;5024232;28;20025;-64
2021/12/26 08:19:55;;;;;;;32.42;14.32;;;;;;;;;;5028270;28;20071;-64
2021/12/26 08:22:20;;;;;;;26.98;13.93;;;;;;;;;;5021376;28;20026;-63
2021/12/26 08:24:46;;;;;;;26.17;14.57;;;;;;;;;;5022961;28;20053;-64
2021/12/26 08:27:11;;;;;;;25.00;12.95;;;;;;;;;;5025353;28;20370;-63
2021/12/26 08:29:36;;;;;;;25.90;13.93;;;;;;;;;;5026408;28;20126;-67
2021/12/26 08:32:02;;;;;;;25.52;13.30;;;;;;;;;;5028796;28;20041;-64
2021/12/26 08:34:27;;;;;;;23.05;13.27;;;;;;;;;;5021274;28;20418;-65
2021/12/26 08:36:58;;;;;;;24.83;12.63;;;;;;;;;;5015920;28;20128;-64
2021/12/26 08:39:25;;;;;;;25.92;13.10;;;;;;;;;;5023744;28;20033;-65
2021/12/26 08:41:50;;;;;;;22.75;12.50;;;;;;;;;;5011904;28;20482;-66
2021/12/26 08:44:16;;;;;;;23.65;12.32;;;;;;;;;;5027847;28;20030;-64
2021/12/26 08:46:42;;;;;;;23.73;12.70;;;;;;;;;;5018985;28;20117;-64
2021/12/26 08:49:07;;;;;;;25.55;13.38;;;;;;;;;;5027417;28;20039;-64
2021/12/26 08:51:32;;;;;;;23.00;12.07;;;;;;;;;;5026404;28;20431;-64
2021/12/26 08:53:59;;;;;;;20.75;11.45;;;;;;;;;;5021186;28;20055;-65
2021/12/26 08:56:24;;;;;;;20.02;11.70;;;;;;;;;;5025451;28;20021;-65
2021/12/26 08:58:50;;;;;;;21.83;11.60;;;;;;;;;;5025523;28;20044;-66
2021/12/26 09:01:15;;;;;;;21.23;12.13;;;;;;;;;;5023829;28;20022;-65
2021/12/26 09:03:41;;;;;;;21.88;12.07;;;;;;;;;;5028327;28;20101;-64
2021/12/26 09:06:07;;;;;;;22.90;12.05;;;;;;;;;;5027248;28;20493;-64
2021/12/26 09:08:32;;;;;;;21.38;11.77;;;;;;;;;;5024592;28;20032;-65
2021/12/26 09:10:58;;;;;;;22.38;11.80;;;;;;;;;;5026435;28;20120;-61
2021/12/26 09:13:23;;;;;;;22.30;12.50;;;;;;;;;;5018014;28;20040;-64
2021/12/26 09:15:48;;;;;;;19.35;10.95;;;;;;;;;;5018592;28;20037;-65
2021/12/26 09:18:13;;;;;;;20.67;11.45;;;;;;;;;;5015378;28;20033;-65
2021/12/26 09:20:39;;;;;;;18.95;11.07;;;;;;;;;;5019056;28;20041;-65
2021/12/26 09:23:04;;;;;;;20.20;11.57;;;;;;;;;;5022336;28;20029;-64
2021/12/26 09:25:29;;;;;;;20.88;11.57;;;;;;;;;;5023972;28;20037;-64
2021/12/26 09:27:55;;;;;;;20.88;11.60;;;;;;;;;;5025135;28;20033;-63
2021/12/26 09:30:20;;;;;;;18.77;10.60;;;;;;;;;;5029248;28;20028;-63
2021/12/26 09:32:45;;;;;;;20.38;11.85;;;;;;;;;;5030038;28;20026;-64
2021/12/26 09:35:11;;;;;;;20.15;11.52;;;;;;;;;;5024197;28;20464;-63
2021/12/26 09:37:36;;;;;;;19.05;11.18;;;;;;;;;;5019495;28;20115;-64
2021/12/26 09:40:01;;;;;;;21.70;11.38;;;;;;;;;;5023558;28;20022;-63
2021/12/26 09:42:28;;;;;;;15.82;9.70;;;;;;;;;;5028041;28;20030;-63
2021/12/26 09:44:53;;;;;;;18.55;10.23;;;;;;;;;;5028537;28;20017;-63
2021/12/26 09:47:18;;;;;;;17.13;10.02;;;;;;;;;;5018789;28;20061;-65
2021/12/26 09:49:43;;;;;;;16.98;9.60;;;;;;;;;;5027913;28;20037;-65
2021/12/26 09:52:09;;;;;;;17.52;10.02;;;;;;;;;;5018644;28;20038;-64
2021/12/26 09:54:35;;;;;;;18.42;10.18;;;;;;;;;;5027170;28;20033;-65
2021/12/26 09:57:00;;;;;;;19.27;10.70;;;;;;;;;;5024634;28;20504;-65
2021/12/26 09:59:30;;;;;;;17.73;9.68;;;;;;;;;;5026524;28;20469;-64
2021/12/26 10:01:56;;;;;;;18.85;10.10;;;;;;;;;;5028597;28;20116;-64
2021/12/26 10:04:26;;;;;;;20.35;11.48;;;;;;;;;;5024172;28;20100;-65
2021/12/26 10:06:56;;;;;;;19.13;11.15;;;;;;;;;;5026860;28;20053;-64
2021/12/26 10:09:21;;;;;;;20.63;11.23;;;;;;;;;;5020097;28;20636;-64
2021/12/26 10:11:51;;;;;;;17.58;10.75;;;;;;;;;;5016640;28;20108;-64
2021/12/26 10:14:16;;;;;;;;;;;;;;;;;;5020550;28;20505;-65
2021/12/26 10:16:46;;;;;;;15.93;9.75;;;;;;;;;;5011522;28;19949;-65
2021/12/26 10:19:11;;;;;;;;;;;;;;;;;;5021908;28;20315;-64
2021/12/26 10:21:42;;;;;;;16.05;9.27;;;;;;;;;;5024460;28;19941;-64
2021/12/26 10:24:27;;;;;;;17.42;9.93;;;;;;;;;;5024056;28;20351;-64
2021/12/26 10:26:53;;;;;;;16.52;9.35;;;;;;;;;;5020307;28;20045;-64
2021/12/26 10:29:18;;;;;;;16.98;9.88;;;;;;;;;;5017835;28;20033;-64
2021/12/26 10:31:46;;;;;;;16.95;9.75;;;;;;;;;;5026376;28;20425;-64
2021/12/26 10:34:14;;;;;;;16.48;10.15;;;;;;;;;;5023555;28;20069;-64
2021/12/26 10:36:46;;;;;;;15.95;9.45;;;;;;;;;;5022791;28;20453;-65
2021/12/26 10:39:12;;;;;;;17.10;9.82;;;;;;;;;;5020654;28;20041;-63
2021/12/26 10:41:42;;;;;;;15.60;9.50;;;;;;;;;;5014869;28;20048;-64
2021/12/26 10:44:07;;;;;;;;;;;;;;;;;;5013388;28;20115;-63
2021/12/26 10:46:32;;;;;;;17.33;9.75;;;;;;;;;;5021228;28;19959;-64
2021/12/26 10:49:20;;;;;;;16.90;9.95;;;;;;;;;;5021951;28;20280;-65
2021/12/26 10:51:45;;;;;;;14.55;8.63;;;;;;;;;;5028343;28;20389;-65
2021/12/26 10:54:14;;;;;;;14.30;9.40;;;;;;;;;;5029514;28;20033;-64
2021/12/26 10:56:39;;;;;;;20.00;10.27;;;;;;;;;;5033509;28;20026;-65
2021/12/26 10:59:18;;;;;;;13.63;8.77;;;;;;;;;;5030807;28;20044;-67
2021/12/26 11:01:43;;;;;;;14.77;8.88;;;;;;;;;;5027098;28;20116;-65
2021/12/26 11:04:10;;;;;;;16.00;9.48;;;;;;;;;;5026214;28;20197;-64
2021/12/26 11:06:55;;;;;;;15.40;9.43;;;;;;;;;;5023963;28;20049;-65
2021/12/26 11:09:21;;;;;;;15.32;9.02;;;;;;;;;;5029021;28;20032;-64
2021/12/26 11:12:06;;;;;;;12.50;8.20;;;;;;;;;;5023501;28;20014;-65
2021/12/26 11:14:31;;;;;;;16.23;9.25;;;;;;;;;;5023131;28;20116;-64
2021/12/26 11:16:57;;;;;;;16.33;9.48;;;;;;;;;;5030182;28;20113;-65
2021/12/26 11:19:41;;;;;;;13.95;8.75;;;;;;;;;;5018905;28;20086;-65
2021/12/26 11:22:06;;;;;;;15.70;9.68;;;;;;;;;;5025912;28;20057;-66
2021/12/26 11:24:32;;;;;;;15.45;9.70;;;;;;;;;;5031074;28;20817;-64
2021/12/26 11:26:57;;;;;;;15.82;9.63;;;;;;;;;;5031079;28;20037;-65
2021/12/26 11:29:22;;;;;;;14.35;9.00;;;;;;;;;;5024445;28;20101;-63
2021/12/26 11:31:50;;;;;;;16.35;9.35;;;;;;;;;;5025878;28;20497;-64
2021/12/26 11:34:16;;;;;;;13.35;8.90;;;;;;;;;;5028640;28;20073;-64
2021/12/26 11:36:41;;;;;;;19.00;10.48;;;;;;;;;;5023739;28;20037;-65
2021/12/26 11:39:07;;;;;;;17.08;10.27;;;;;;;;;;5023581;28;20033;-65
2021/12/26 11:41:46;;;;;;;19.17;10.50;;;;;;;;;;5020988;28;20048;-65
2021/12/26 11:44:11;;;;;;;16.95;10.23;;;;;;;;;;5025785;28;20159;-64
2021/12/26 11:46:40;;;;;;;21.38;11.75;;;;;;;;;;5027248;28;20113;-65
2021/12/26 11:49:27;;;;;;;22.08;12.02;;;;;;;;;;5016710;28;20032;-64
2021/12/26 11:52:01;;;;;;;19.55;11.23;;;;;;;;;;5017904;28;20477;-63
2021/12/26 11:54:32;;;;;;;20.60;11.07;;;;;;;;;;5024468;28;20030;-64
2021/12/26 11:57:16;;;;;;;20.02;12.10;;;;;;;;;;5023497;28;20087;-65
2021/12/26 11:59:59;;;;;;;17.63;10.98;;;;;;;;;;5022987;28;20021;-63
2021/12/26 12:02:42;;;;;;;19.33;11.60;;;;;;;;;;5029295;28;20029;-65
2021/12/26 12:05:07;;;;;;;23.75;13.25;;;;;;;;;;5019209;28;20021;-64
2021/12/26 12:07:51;;;;;;;23.63;12.77;;;;;;;;;;5024248;28;20135;-64
2021/12/26 12:10:35;;;;;;;24.05;12.98;;;;;;;;;;5022165;28;20473;-64
2021/12/26 12:13:00;;;;;;;23.48;12.90;;;;;;;;;;5022659;28;20026;-64
2021/12/26 12:15:43;;;;;;;21.23;13.05;;;;;;;;;;5025763;28;20033;-64
2021/12/26 12:18:09;;;;;;;23.40;13.15;;;;;;;;;;5020841;28;20385;-63
2021/12/26 12:20:35;;;;;;;21.85;12.63;;;;;;;;;;5028429;28;20029;-64
2021/12/26 12:23:03;;;;;;;20.48;11.82;;;;;;;;;;5024113;28;20370;-63
2021/12/26 12:25:34;;;;;;;23.13;12.00;;;;;;;;;;5027146;28;20112;-64
2021/12/26 12:28:05;;;;;;;24.08;11.65;;;;;;;;;;5023154;28;20150;-64
2021/12/26 12:30:30;;;;;;;19.40;11.25;;;;;;;;;;5023490;28;20072;-63
2021/12/26 12:33:13;;;;;;;19.33;11.13;;;;;;;;;;5018933;28;20021;-65
2021/12/26 12:35:46;;;;;;;19.85;12.45;;;;;;;;;;5023031;28;20040;-64
2021/12/26 12:38:22;;;;;;;23.05;12.32;;;;;;;;;;5016892;28;20112;-64
2021/12/26 12:40:48;;;;;;;21.73;11.63;;;;;;;;;;5027182;28;20033;-64
2021/12/26 12:43:15;;;;;;;21.70;11.93;;;;;;;;;;5022459;28;20091;-64
2021/12/26 12:45:53;;;;;;;20.60;11.50;;;;;;;;;;5022506;28;20116;-63
2021/12/26 12:48:21;;;;;;;19.13;11.30;;;;;;;;;;5024153;28;20051;-66
2021/12/26 12:50:46;;;;;;;21.30;11.10;;;;;;;;;;5018742;28;20108;-65
2021/12/26 12:53:31;;;;;;;21.00;12.10;;;;;;;;;;5025078;28;20152;-65
2021/12/26 12:55:57;;;;;;;20.73;11.57;;;;;;;;;;5030534;28;20040;-65
2021/12/26 12:58:31;;;;;;;19.60;11.80;;;;;;;;;;5029418;28;20033;-69
2021/12/26 13:00:57;;;;;;;24.13;11.95;;;;;;;;;;5029379;28;20061;-65
2021/12/26 13:03:22;;;;;;;22.88;12.60;;;;;;;;;;5019599;28;20174;-65
2021/12/26 13:05:48;;;;;;;20.45;11.38;;;;;;;;;;5022131;28;20089;-65
2021/12/26 13:08:15;;;;;;;19.20;12.38;;;;;;;;;;5028848;28;20773;-66
2021/12/26 13:10:41;;;;;;;24.25;13.43;;;;;;;;;;5029085;28;20029;-64
2021/12/26 13:13:08;;;;;;;30.95;15.00;;;;;;;;;;5025333;28;20057;-65
2021/12/26 13:15:33;;;;;;;23.13;13.30;;;;;;;;;;5028799;28;20149;-65
2021/12/26 13:18:04;;;;;;;22.90;13.27;;;;;;;;;;5028884;28;20446;-65
2021/12/26 13:20:29;;;;;;;23.20;13.55;;;;;;;;;;5028885;28;20307;-64
2021/12/26 13:22:56;;;;;;;22.10;13.55;;;;;;;;;;5028433;28;20044;-65
2021/12/26 13:25:27;;;;;;;24.15;13.70;;;;;;;;;;5029442;28;20384;-65
2021/12/26 13:27:53;;;;;;;28.65;14.32;;;;;;;;;;5022652;28;20385;-64
2021/12/26 13:30:20;;;;;;;23.17;13.85;;;;;;;;;;5028639;28;20018;-64
2021/12/26 13:32:45;;;;;;;24.25;14.68;;;;;;;;;;5027609;28;20433;-65
2021/12/26 13:35:11;;;;;;;24.23;14.40;;;;;;;;;;5025419;28;20037;-63
2021/12/26 13:37:36;;;;;;;23.38;13.73;;;;;;;;;;5027559;28;20049;-64
2021/12/26 13:40:03;;;;;;;23.00;13.55;;;;;;;;;;5027636;28;20017;-65
2021/12/26 13:42:30;;;;;;;22.35;13.10;;;;;;;;;;5027265;28;20137;-65
2021/12/26 13:44:55;;;;;;;20.92;12.35;;;;;;;;;;5028458;28;20021;-64
2021/12/26 13:47:21;;;;;;;21.40;12.93;;;;;;;;;;5028241;28;20043;-65
2021/12/26 13:49:46;;;;;;;21.60;12.88;;;;;;;;;;5028555;28;20405;-64
2021/12/26 13:52:19;;;;;;;20.52;12.35;;;;;;;;;;5027586;28;20284;-65
2021/12/26 13:54:52;;;;;;;17.35;10.70;;;;;;;;;;5021416;28;20041;-65
2021/12/26 13:57:19;;;;;;;18.60;11.18;;;;;;;;;;5028320;28;20033;-64
2021/12/26 13:59:44;;;;;;;21.58;12.02;;;;;;;;;;5029317;28;20052;-65
2021/12/26 14:02:20;;;;;;;20.92;12.63;;;;;;;;;;5028181;28;20072;-64
2021/12/26 14:04:47;;;;;;;21.25;12.38;;;;;;;;;;5015611;28;20022;-64
2021/12/26 14:07:14;;;;;;;20.52;12.13;;;;;;;;;;5027754;28;20177;-64
2021/12/26 14:09:43;;;;;;;21.13;11.98;;;;;;;;;;5027456;28;20079;-65
2021/12/26 14:12:24;;;;;;;20.25;12.45;;;;;;;;;;5027854;28;20025;-65
2021/12/26 14:14:49;;;;;;;19.60;11.50;;;;;;;;;;5026546;28;20064;-64
2021/12/26 14:17:14;;;;;;;19.38;11.40;;;;;;;;;;5027804;28;20025;-65